Terminal Aerodrome Forecast
Issued by NWS Blacksburg, VA

Home | Current Version | Previous Version | Text Only | Print | Product List | Glossary On
Versions: 1 2 3 4 5 6 7 8 9 10 11 12 13 14 15 16 17 18 19 20 21 22 23 24 25 26 27 28 29 30 31 32 33 34 35 36 37 38 39 40 41 42 43 44 45 46 47 48 49
000
FTUS41 KRNK 222340
TAFBLF
TAF
KBLF 222340Z 2300/2324 15006G15KT 6SM BR OVC007
      TEMPO 2306/2310 2SM -SHRA BR
     FM231500 15010G16KT P6SM SCT007 BKN025 OVC040
      TEMPO 2315/2318 BKN007=

USA.gov is the U.S. government's official web portal to all federal, state and local government web resources and services.